메인 페이지
METAR-TAF:

METAR-TAF

공항 :

미니애폴리스, 미네소타, 미국

미니애폴리스 세인트폴 국제공항

위도: 44-52-59N, 경도: 093-13-44W, 고도: 256m

현재 날씨관측

예보는 1 시간 1분 전, 07:53시(UTC)에 발표되었습니다.
무풍
온도 2°C
습도 80%
기압 1015 hPa
시정: 16.1km
고도 11000ft 상공 흐림

METAR: KMSP 210753Z 00000KT 10SM OVC110 02/M01 A2996 RMK AO2 SLP151 T00221006

시각: 02:54 (08:54 UTC)

예보

예보는 3 시간 30분 전, 05:24시(UTC)에 발표되었습니다.
예보 대상 시간: 21일 06시부터 22일 12시까지 (UTC)
여러 방향의 바람 2kt
시정: 10km
고도 10000ft 상공 흐림
일시적
21일 10시부터 21일 14시까지 (UTC)
시정: 8.0km
고도 500ft 상공 구름 보통
박무
21일 2000시부터 (UTC)
북북동6kt
시정: 10km
고도 5000ft 상공 흐림
22일 0000시부터 (UTC)
북북동6kt
시정: 10km
고도 3000ft 상공 흐림
22일 0300시부터 (UTC)
북북동6kt
시정: 10km
고도 1500ft 상공 흐림
22일 0600시부터 (UTC)
북북동11kt
시정: 10km
고도 800ft 상공 흐림
22일 0800시부터 (UTC)
북북동14kt, 순간 최대 풍속 20kt
시정: 6.4km
고도 700ft 상공 흐림
약한눈
22일 1000시부터 (UTC)
북북동16kt, 순간 최대 풍속 24kt
시정: 4.8km
고도 500ft 상공 흐림
약한눈, 날린눈

TAF: KMSP 210524Z 2106/2212 VRB02KT P6SM OVC100 TEMPO 2110/2114 5SM BR SCT005 FM212000 02006KT P6SM OVC050 FM220000 03006KT P6SM OVC030 FM220300 03006KT P6SM OVC015 FM220600 03011KT P6SM OVC008 FM220800 03014G20KT 4SM -SN OVC007 FM221000 03016G24KT 3SM -SN BLSN OVC005

4,000개 이상의 공항 관측 자료 및 예보 (METAR 및 TAF 보고).

지도상에서 검색 가능한 기상관측소가 노란 점과 빨간 점으로 표시되어 있습니다.

기상관측소 명을 보려면 표시 위로 마우스를 이동하세요.

날씨 관측과 예보를 보려면 클릭하세요.

지도 변경 : 확대하려면 엑스 표시가 있는 녹색 버튼, 축소하려면 빼기 표시가 있는 녹색 버튼, 다음 페이지의 지도를 보려면 녹색 화살표를 클릭하세요.


METAR-TAF: